Terminal Aerodrome Forecast
Issued by NWS Quad Cities IA IL

Home | Current Version | Previous Version | Text Only | Print | Product List | Glossary On
Versions: 1 2 3 4 5 6 7 8 9 10 11 12 13 14 15
000
FTUS43 KDVN 251730
TAFDBQ
TAF
KDBQ 251730Z 2518/2618 15014KT P6SM BKN100
     FM260400 13011KT P6SM VCSH BKN060
     FM260800 16012KT 5SM -SHRA BKN030
     FM261400 24014KT 5SM BR VCSH OVC012=

USA.gov is the U.S. government's official web portal to all federal, state and local government web resources and services.